createdAt,value
2022-09-10T00:02:32.529Z,96.74
2022-09-10T00:07:31.867Z,96.73
2022-09-10T00:12:32.008Z,96.75
2022-09-10T00:17:31.324Z,96.84
2022-09-10T00:22:30.110Z,96.92
2022-09-10T00:27:29.716Z,96.96
2022-09-10T00:32:28.908Z,96.96
2022-09-10T00:37:28.372Z,96.96
2022-09-10T00:42:27.885Z,96.90
2022-09-10T00:47:33.888Z,96.93
2022-09-10T00:52:37.580Z,96.93
2022-09-10T00:57:39.795Z,96.79
2022-09-10T01:02:39.320Z,96.79
2022-09-10T01:07:39.296Z,96.83
2022-09-10T01:13:16.020Z,96.86
2022-09-10T01:18:35.473Z,96.92
2022-09-10T01:24:37.293Z,96.89
2022-09-10T01:29:46.097Z,96.91
2022-09-10T01:34:57.711Z,96.97
2022-09-10T01:40:00.290Z,96.95
2022-09-10T01:45:02.841Z,96.92
2022-09-10T01:50:24.336Z,96.95
2022-09-10T01:55:43.011Z,96.99
2022-09-10T02:00:53.857Z,97.01
2022-09-10T02:05:57.854Z,97.00
2022-09-10T02:11:01.484Z,97.04
2022-09-10T02:16:07.139Z,97.05
2022-09-10T02:21:15.620Z,97.03
2022-09-10T02:26:15.963Z,97.02
2022-09-10T02:31:15.130Z,97.10
2022-09-10T02:36:14.696Z,97.15
2022-09-10T02:41:15.727Z,97.15
2022-09-10T02:46:15.312Z,97.16
2022-09-10T02:51:15.108Z,97.16
2022-09-10T02:56:15.462Z,97.13
2022-09-10T03:01:18.462Z,97.14
2022-09-10T03:06:23.478Z,97.16
2022-09-10T03:11:24.312Z,97.16
2022-09-10T03:16:28.038Z,97.16
2022-09-10T03:21:29.146Z,97.17
2022-09-10T03:26:30.686Z,97.19
2022-09-10T03:31:30.363Z,97.19
2022-09-10T03:36:31.596Z,97.24
2022-09-10T03:41:32.282Z,97.26
2022-09-10T03:46:32.830Z,97.28
2022-09-10T03:51:34.305Z,97.25
2022-09-10T03:56:35.716Z,97.32
2022-09-10T04:01:34.783Z,97.29
2022-09-10T04:06:37.426Z,97.18
2022-09-10T04:11:37.463Z,97.19
2022-09-10T04:16:37.465Z,97.26
2022-09-10T04:21:38.649Z,97.30
2022-09-10T04:26:39.703Z,97.34
2022-09-10T04:31:39.615Z,97.37
2022-09-10T04:36:43.571Z,97.38
2022-09-10T04:41:42.921Z,97.39
2022-09-10T04:46:43.775Z,97.39
2022-09-10T04:51:43.046Z,97.45
2022-09-10T04:56:43.118Z,97.44
2022-09-10T05:01:45.251Z,97.44
2022-09-10T05:06:45.150Z,97.45
2022-09-10T05:11:44.652Z,97.46
2022-09-10T05:16:44.656Z,97.41
2022-09-10T05:21:46.825Z,97.40
2022-09-10T05:26:46.962Z,97.42
2022-09-10T05:31:45.866Z,97.39
2022-09-10T05:36:45.932Z,97.38
2022-09-10T05:41:47.585Z,97.42
2022-09-10T05:46:46.527Z,97.41
2022-09-10T05:51:46.933Z,97.44
2022-09-10T05:56:46.183Z,97.49
2022-09-10T06:01:46.019Z,97.46
2022-09-10T06:06:45.869Z,97.43
2022-09-10T06:11:45.580Z,97.46
2022-09-10T06:16:44.283Z,97.47
2022-09-10T06:21:43.687Z,97.44
2022-09-10T06:26:42.785Z,97.43
2022-09-10T06:31:44.862Z,97.44
2022-09-10T06:36:45.841Z,97.45
2022-09-10T06:41:49.445Z,97.47
2022-09-10T06:52:31.371Z,97.49
2022-09-10T06:57:34.518Z,97.49
2022-09-10T07:02:34.747Z,97.48
2022-09-10T07:07:34.547Z,97.48
2022-09-10T07:12:35.548Z,97.48
2022-09-10T07:17:37.963Z,97.48
2022-09-10T07:22:39.762Z,97.48
2022-09-10T07:27:41.873Z,97.46
2022-09-10T07:32:40.515Z,97.44
2022-09-10T07:37:48.558Z,97.41
2022-09-10T07:42:48.351Z,97.37
2022-09-10T07:47:48.466Z,97.34
2022-09-10T07:52:49.475Z,97.30
2022-09-10T07:57:48.813Z,97.24
2022-09-10T08:02:49.804Z,97.18
2022-09-10T08:07:54.117Z,97.12
2022-09-10T08:12:53.587Z,97.06
2022-09-10T08:17:53.352Z,97.03
2022-09-10T08:22:57.618Z,97.00
2022-09-10T08:27:58.341Z,96.97
2022-09-10T08:32:58.132Z,96.94
2022-09-10T08:37:57.148Z,96.90
2022-09-10T08:42:57.741Z,96.87
2022-09-10T08:48:08.935Z,96.81
2022-09-10T08:53:26.929Z,96.76
2022-09-10T08:58:35.202Z,96.77
2022-09-10T09:03:41.769Z,96.71
2022-09-10T09:08:50.246Z,96.61
2022-09-10T09:14:21.255Z,96.47
2022-09-10T09:19:33.684Z,96.50
2022-09-10T09:24:54.025Z,96.48
2022-09-10T09:30:03.016Z,96.49
2022-09-10T09:35:24.004Z,96.45
2022-09-10T09:40:34.219Z,96.40
2022-09-10T09:45:43.882Z,96.31
2022-09-10T09:50:49.315Z,96.21
2022-09-10T09:55:53.936Z,96.21
2022-09-10T10:01:07.095Z,96.16
2022-09-10T10:06:09.776Z,96.08
2022-09-10T10:11:14.606Z,95.99
2022-09-10T10:16:27.030Z,95.85
2022-09-10T10:21:34.086Z,95.74
2022-09-10T10:26:36.977Z,93.87
2022-09-10T10:31:44.811Z,93.27
2022-09-10T10:36:57.426Z,94.33
2022-09-10T10:42:14.086Z,94.56
2022-09-10T10:47:45.435Z,94.75
2022-09-10T10:53:06.289Z,94.84
2022-09-10T10:58:39.832Z,94.83
2022-09-10T11:03:46.235Z,94.88
2022-09-10T11:08:51.894Z,94.89
2022-09-10T11:13:58.877Z,94.87
2022-09-10T11:19:03.707Z,94.83
2022-09-10T11:24:16.328Z,94.79
2022-09-10T11:29:34.373Z,94.81
2022-09-10T11:34:47.867Z,94.83
2022-09-10T11:39:55.304Z,94.78
2022-09-10T11:45:04.481Z,94.72
2022-09-10T11:50:11.387Z,94.70
2022-09-10T11:55:17.879Z,94.63
2022-09-10T12:00:20.986Z,94.61
2022-09-10T12:05:31.477Z,94.60
2022-09-10T12:10:40.251Z,94.58
2022-09-10T12:15:40.789Z,94.56
2022-09-10T12:20:50.185Z,94.54
2022-09-10T12:26:00.309Z,94.52
2022-09-10T12:31:07.041Z,94.50
2022-09-10T12:36:06.586Z,94.49
2022-09-10T12:41:09.808Z,94.47
2022-09-10T12:46:25.921Z,94.44
2022-09-10T12:51:48.719Z,94.41
2022-09-10T12:57:28.706Z,94.42
2022-09-10T13:02:35.479Z,94.45
2022-09-10T13:07:44.523Z,94.44
2022-09-10T13:12:48.714Z,94.49
2022-09-10T13:18:29.141Z,94.51
2022-09-10T13:23:50.880Z,94.54
2022-09-10T13:29:12.688Z,94.52
2022-09-10T13:35:08.659Z,94.52
2022-09-10T13:40:58.994Z,94.57
2022-09-10T13:46:04.029Z,94.54
2022-09-10T13:51:17.195Z,94.42
2022-09-10T13:56:24.395Z,94.36
2022-09-10T14:01:42.986Z,94.37
2022-09-10T14:06:43.507Z,94.05
2022-09-10T14:11:46.426Z,94.23
2022-09-10T14:16:50.169Z,94.28
2022-09-10T14:21:53.615Z,94.19
2022-09-10T14:27:16.947Z,94.16
2022-09-10T14:32:37.540Z,94.13
2022-09-10T14:37:39.056Z,94.08
2022-09-10T14:42:38.971Z,93.98
2022-09-10T14:47:51.479Z,93.92
2022-09-10T14:52:51.364Z,93.94
2022-09-10T14:57:50.705Z,93.94
2022-09-10T15:02:50.906Z,94.02
2022-09-10T15:07:50.383Z,94.06
2022-09-10T15:12:53.281Z,94.04
2022-09-10T15:17:51.754Z,94.08
2022-09-10T15:22:50.709Z,94.17
2022-09-10T15:27:49.645Z,94.26
2022-09-10T15:32:48.407Z,94.27
2022-09-10T15:37:47.308Z,94.28
2022-09-10T15:42:46.374Z,94.25
2022-09-10T15:47:45.465Z,94.30
2022-09-10T15:52:46.695Z,94.36
2022-09-10T15:57:45.796Z,94.39
2022-09-10T16:02:48.091Z,94.44
2022-09-10T16:07:49.850Z,94.43
2022-09-10T16:12:49.040Z,94.42
2022-09-10T16:17:47.692Z,94.41
2022-09-10T16:22:46.406Z,94.42
2022-09-10T16:27:45.557Z,94.46
2022-09-10T16:32:44.697Z,94.54
2022-09-10T16:37:43.121Z,94.56
2022-09-10T16:42:42.500Z,94.54
2022-09-10T16:47:41.584Z,94.51
2022-09-10T16:52:41.160Z,94.49
2022-09-10T16:57:41.414Z,94.51
2022-09-10T17:02:40.978Z,94.54
2022-09-10T17:07:39.868Z,94.62
2022-09-10T17:12:38.967Z,94.63
2022-09-10T17:17:38.499Z,94.62
2022-09-10T17:22:37.451Z,94.61
2022-09-10T17:27:36.380Z,94.62
2022-09-10T17:32:36.487Z,94.62
2022-09-10T17:37:36.132Z,94.64
2022-09-10T17:42:34.877Z,94.65
2022-09-10T17:47:34.656Z,94.67
2022-09-10T17:52:33.384Z,94.69
2022-09-10T17:57:33.134Z,94.69
2022-09-10T18:02:32.238Z,94.69
2022-09-10T18:07:31.576Z,94.71
2022-09-10T18:12:30.239Z,94.72
2022-09-10T18:17:29.685Z,94.75
2022-09-10T18:22:28.543Z,94.80
2022-09-10T18:27:27.788Z,94.87
2022-09-10T18:32:26.843Z,94.89
2022-09-10T18:37:25.864Z,94.91
2022-09-10T18:42:24.124Z,94.95
2022-09-10T18:47:43.656Z,94.97
2022-09-10T18:52:45.585Z,95.08
2022-09-10T18:57:44.628Z,95.22
2022-09-10T19:02:46.135Z,95.35
2022-09-10T19:07:45.306Z,95.33
2022-09-10T19:12:44.405Z,95.34
2022-09-10T19:17:43.848Z,95.32
2022-09-10T19:22:44.167Z,95.33
2022-09-10T19:27:42.505Z,95.34
2022-09-10T19:32:41.507Z,95.38
2022-09-10T19:37:40.550Z,95.42
2022-09-10T19:42:39.879Z,95.45
2022-09-10T19:47:38.739Z,95.48
2022-09-10T19:52:38.171Z,95.55
2022-09-10T19:57:37.415Z,95.67
2022-09-10T20:02:39.365Z,95.77
2022-09-10T20:07:38.771Z,95.86
2022-09-10T20:12:38.267Z,95.89
2022-09-10T20:17:38.469Z,95.93
2022-09-10T20:22:38.799Z,95.94
2022-09-10T20:27:37.745Z,95.96
2022-09-10T20:32:37.544Z,96.02
2022-09-10T20:37:36.420Z,96.03
2022-09-10T20:42:35.518Z,96.01
2022-09-10T20:47:43.164Z,96.02
2022-09-10T20:52:44.560Z,96.05
2022-09-10T20:57:43.844Z,96.04
2022-09-10T21:02:42.845Z,96.05
2022-09-10T21:07:41.596Z,96.02
2022-09-10T21:12:40.300Z,96.04
2022-09-10T21:17:40.369Z,96.12
2022-09-10T21:22:39.328Z,96.16
2022-09-10T21:27:38.038Z,96.28
2022-09-10T21:32:38.375Z,96.36
2022-09-10T21:37:38.128Z,96.39
2022-09-10T21:42:37.175Z,96.49
2022-09-10T21:47:36.621Z,96.64
2022-09-10T21:52:35.526Z,96.68
2022-09-10T21:57:34.006Z,96.70
2022-09-10T22:02:33.451Z,96.68
2022-09-10T22:07:33.493Z,96.75
2022-09-10T22:12:32.252Z,96.79
2022-09-10T22:17:31.316Z,96.84
2022-09-10T22:22:30.169Z,96.85
2022-09-10T22:27:29.170Z,96.89
2022-09-10T22:32:28.507Z,96.89
2022-09-10T22:37:27.040Z,97.06
2022-09-10T22:42:26.447Z,97.22
2022-09-10T22:47:25.305Z,97.24
2022-09-10T22:52:24.354Z,97.26
2022-09-10T22:57:24.776Z,97.33
2022-09-10T23:02:24.624Z,97.41
2022-09-10T23:07:23.260Z,97.47
2022-09-10T23:12:22.703Z,97.64
2022-09-10T23:17:22.772Z,97.80
2022-09-10T23:22:22.189Z,97.87
2022-09-10T23:27:20.941Z,97.87
2022-09-10T23:32:20.212Z,97.88
2022-09-10T23:37:19.959Z,97.96
2022-09-10T23:42:21.679Z,98.14
2022-09-10T23:47:20.934Z,98.21
2022-09-10T23:52:20.294Z,98.40
2022-09-10T23:57:19.340Z,98.47
